Time;durP1;ratioP1;P1;durP2;ratioP2;P2;SDS_P1;SDS_P2;PMS_P1;PMS_P2;Temp;Humidity;BMP_temperature;BMP_pressure;BME280_temperature;BME280_humidity;BME280_pressure;Samples;Min_cycle;Max_cycle;Signal;HPM_P1;HPM_P2
2022/03/21 00:01:12;;;;;;;30.30;14.97;;;9.00;52.70;;;;;;5024929;28;20266;-45
2022/03/21 00:03:40;;;;;;;28.77;13.93;;;8.90;52.80;;;;;;5025378;28;20449;-46
2022/03/21 00:06:07;;;;;;;28.80;14.43;;;8.90;52.90;;;;;;5027638;28;20942;-46
2022/03/21 00:08:35;;;;;;;26.90;14.20;;;8.80;52.90;;;;;;5028219;28;20202;-44
2022/03/21 00:11:02;;;;;;;35.67;16.20;;;8.80;53.00;;;;;;5011211;28;20209;-48
2022/03/21 00:13:30;;;;;;;25.77;13.83;;;8.80;53.10;;;;;;5026303;28;20205;-44
2022/03/21 00:15:58;;;;;;;31.73;15.73;;;8.80;53.20;;;;;;5025250;28;20230;-45
2022/03/21 00:18:27;;;;;;;32.40;17.13;;;8.80;53.20;;;;;;5021905;28;20339;-47
2022/03/21 00:20:56;;;;;;;35.10;17.07;;;8.80;53.50;;;;;;5021705;28;20204;-47
2022/03/21 00:23:25;;;;;;;32.57;17.00;;;8.80;53.60;;;;;;5026492;28;20231;-46
2022/03/21 00:25:53;;;;;;;32.57;16.20;;;8.80;53.50;;;;;;5021616;28;20261;-45
2022/03/21 00:28:20;;;;;;;31.00;15.20;;;8.80;53.50;;;;;;5017430;28;21097;-46
2022/03/21 00:30:47;;;;;;;32.40;14.70;;;8.70;53.40;;;;;;5027728;28;20204;-46
2022/03/21 00:33:15;;;;;;;29.33;14.90;;;8.60;53.40;;;;;;5022612;28;20656;-47
2022/03/21 00:35:43;;;;;;;31.60;14.50;;;8.60;53.50;;;;;;5028675;28;20285;-45
2022/03/21 00:38:15;;;;;;;40.60;19.30;;;8.60;53.60;;;;;;5023265;28;20216;-48
2022/03/21 00:40:44;;;;;;;41.50;19.40;;;8.50;53.70;;;;;;5028447;28;20195;-45
2022/03/21 00:43:11;;;;;;;43.03;19.73;;;8.60;53.80;;;;;;5027852;28;20248;-44
2022/03/21 00:45:39;;;;;;;41.43;19.10;;;8.60;53.70;;;;;;5024321;28;20278;-46
2022/03/21 00:48:06;;;;;;;46.67;18.73;;;8.60;53.70;;;;;;5018886;28;20715;-44
2022/03/21 00:50:34;;;;;;;45.77;20.90;;;8.50;53.70;;;;;;5028599;28;20596;-48
2022/03/21 00:53:01;;;;;;;45.07;20.70;;;8.40;53.80;;;;;;5018504;28;20271;-52
2022/03/21 00:55:29;;;;;;;53.30;22.57;;;8.40;53.90;;;;;;5031622;28;20553;-48
2022/03/21 00:57:57;;;;;;;54.23;23.10;;;8.30;54.00;;;;;;5032753;28;20234;-45
2022/03/21 01:00:26;;;;;;;61.93;25.33;;;8.30;54.20;;;;;;5027954;28;20512;-44
2022/03/21 01:02:54;;;;;;;62.93;25.23;;;8.30;54.20;;;;;;5029699;28;20190;-47
2022/03/21 01:05:22;;;;;;;68.90;27.40;;;8.30;54.20;;;;;;5032355;28;20226;-45
2022/03/21 01:07:50;;;;;;;88.10;32.63;;;8.20;54.20;;;;;;5031718;28;20202;-47
2022/03/21 01:10:20;;;;;;;75.73;30.90;;;8.20;54.40;;;;;;5031389;28;20205;-48
2022/03/21 01:12:50;;;;;;;74.93;31.07;;;8.20;54.50;;;;;;5008704;28;20198;-49
2022/03/21 01:15:19;;;;;;;68.97;29.03;;;8.20;54.50;;;;;;5031518;28;20551;-47
2022/03/21 01:17:46;;;;;;;76.53;29.60;;;8.10;54.50;;;;;;5028569;28;20598;-45
2022/03/21 01:20:15;;;;;;;72.77;30.67;;;8.10;54.70;;;;;;5026309;28;20195;-47
2022/03/21 01:22:42;;;;;;;81.77;32.13;;;8.10;54.80;;;;;;5031367;28;20509;-49
2022/03/21 01:25:11;;;;;;;84.77;33.30;;;8.10;54.80;;;;;;5029278;28;20203;-47
2022/03/21 01:27:39;;;;;;;82.40;33.37;;;8.10;54.90;;;;;;5011319;28;20215;-49
2022/03/21 01:30:09;;;;;;;78.23;32.17;;;8.10;54.90;;;;;;5014365;28;20213;-44
2022/03/21 01:32:37;;;;;;;71.03;30.17;;;8.00;54.90;;;;;;5030112;28;20196;-48
2022/03/21 01:35:06;;;;;;;77.80;31.53;;;8.00;55.00;;;;;;5030250;28;20278;-48
2022/03/21 01:37:33;;;;;;;72.23;29.60;;;8.00;55.10;;;;;;5026919;28;20258;-46
2022/03/21 01:40:00;;;;;;;76.27;31.10;;;8.00;55.10;;;;;;5031093;28;20322;-45
2022/03/21 01:42:28;;;;;;;67.93;28.53;;;8.00;55.20;;;;;;5014379;28;20207;-45
2022/03/21 01:44:57;;;;;;;60.30;25.27;;;8.00;55.30;;;;;;5028014;28;20199;-49
2022/03/21 01:47:26;;;;;;;74.83;29.27;;;7.90;55.20;;;;;;5029677;28;20191;-47
2022/03/21 01:49:53;;;;;;;72.67;28.97;;;7.90;55.40;;;;;;5031668;28;20223;-46
2022/03/21 01:52:21;;;;;;;69.27;28.57;;;7.80;55.40;;;;;;5031374;28;20198;-48
2022/03/21 01:57:34;;;;;;;69.40;29.67;;;7.80;55.50;;;;;;5030401;28;20696;-44
2022/03/21 02:00:01;;;;;;;64.17;27.17;;;7.80;55.50;;;;;;5027707;28;20269;-48
2022/03/21 02:02:30;;;;;;;86.43;33.00;;;7.70;55.60;;;;;;5027608;28;20199;-47
2022/03/21 02:04:57;;;;;;;78.00;32.23;;;7.70;55.70;;;;;;5028818;28;20307;-48
2022/03/21 02:07:25;;;;;;;67.63;28.30;;;7.70;55.80;;;;;;5013057;28;20206;-49
2022/03/21 02:09:52;;;;;;;78.17;31.53;;;7.70;55.90;;;;;;5026938;28;20198;-48
2022/03/21 02:12:19;;;;;;;76.53;29.60;;;7.70;55.90;;;;;;5030370;28;20241;-49
2022/03/21 02:14:47;;;;;;;65.33;26.93;;;7.70;56.00;;;;;;5019985;28;20201;-47
2022/03/21 02:17:19;;;;;;;62.57;26.30;;;7.70;56.10;;;;;;5027821;28;20642;-49
2022/03/21 02:19:49;;;;;;;52.17;21.90;;;7.60;56.10;;;;;;5030853;28;20234;-48
2022/03/21 02:22:28;;;;;;;52.70;23.03;;;7.60;56.30;;;;;;5025604;28;20536;-47
2022/03/21 02:25:04;;;;;;;51.43;22.80;;;7.60;56.30;;;;;;5020377;28;20234;-45
2022/03/21 02:27:35;;;;;;;69.23;29.57;;;7.60;56.40;;;;;;5030513;28;20205;-46
2022/03/21 02:30:04;;;;;;;63.37;28.03;;;7.60;56.40;;;;;;5016481;28;20719;-47
2022/03/21 02:32:31;;;;;;;75.50;30.80;;;7.60;56.40;;;;;;5024684;28;20562;-47
2022/03/21 02:35:00;;;;;;;81.73;31.20;;;7.50;56.40;;;;;;5019302;28;20191;-45
2022/03/21 02:37:28;;;;;;;85.27;32.57;;;7.60;56.60;;;;;;5029671;28;20187;-48
2022/03/21 02:39:56;;;;;;;66.60;27.63;;;7.60;56.70;;;;;;5030577;28;20202;-45
2022/03/21 02:42:23;;;;;;;80.37;30.80;;;7.50;56.60;;;;;;5020587;28;20700;-46
2022/03/21 02:44:52;;;;;;;91.83;34.93;;;7.50;56.70;;;;;;5025898;28;20199;-45
2022/03/21 02:47:19;;;;;;;85.03;32.83;;;7.40;56.80;;;;;;5021196;28;20193;-49
2022/03/21 02:49:46;;;;;;;99.30;35.60;;;7.40;56.80;;;;;;5011216;28;20286;-46
2022/03/21 02:52:15;;;;;;;87.77;34.87;;;7.40;56.90;;;;;;5025401;28;20651;-46
2022/03/21 02:54:42;;;;;;;84.60;31.33;;;7.40;57.60;;;;;;5027544;28;20202;-47
2022/03/21 02:57:10;;;;;;;81.63;32.53;;;7.40;57.00;;;;;;5030544;28;20198;-46
2022/03/21 02:59:37;;;;;;;87.47;33.33;;;7.40;57.10;;;;;;5027296;28;20216;-50
2022/03/21 03:02:07;;;;;;;80.77;30.70;;;7.40;57.10;;;;;;5025459;28;20203;-51
2022/03/21 03:04:34;;;;;;;88.83;33.73;;;7.40;57.00;;;;;;5029682;28;20718;-52
2022/03/21 03:07:01;;;;;;;88.53;34.20;;;7.30;57.00;;;;;;5010326;28;20211;-49
2022/03/21 03:09:28;;;;;;;99.63;37.47;;;7.30;57.10;;;;;;5025858;28;20195;-47
2022/03/21 03:11:56;;;;;;;112.43;42.30;;;7.30;57.20;;;;;;5028712;28;20221;-48
2022/03/21 03:14:23;;;;;;;107.77;40.53;;;7.20;57.20;;;;;;5028390;28;20655;-45
2022/03/21 03:16:50;;;;;;;115.47;42.83;;;7.30;57.30;;;;;;5012939;28;20532;-48
2022/03/21 03:19:18;;;;;;;104.20;40.47;;;7.30;57.40;;;;;;5005335;28;20573;-47
2022/03/21 03:21:49;;;;;;;115.57;43.13;;;7.30;57.40;;;;;;5027539;28;20690;-45
2022/03/21 03:24:19;;;;;;;98.03;38.13;;;7.30;57.40;;;;;;5011854;28;20206;-44
2022/03/21 03:26:46;;;;;;;98.57;37.27;;;7.30;57.40;;;;;;5006900;28;20190;-45
2022/03/21 03:29:13;;;;;;;91.97;34.83;;;7.20;57.40;;;;;;5025226;28;20194;-47
2022/03/21 03:31:40;;;;;;;97.27;36.43;;;7.20;57.50;;;;;;5022480;28;20230;-45
2022/03/21 03:34:08;;;;;;;91.07;32.93;;;7.20;57.60;;;;;;5024954;28;20191;-45
2022/03/21 03:36:38;;;;;;;89.87;35.07;;;7.20;57.70;;;;;;5022638;28;20198;-48
2022/03/21 03:39:24;;;;;;;89.77;34.47;;;7.10;57.70;;;;;;5029299;28;20288;-50
2022/03/21 03:41:51;;;;;;;89.37;35.83;;;7.20;57.90;;;;;;5024036;28;20197;-47
2022/03/21 03:44:18;;;;;;;90.17;34.27;;;7.10;57.90;;;;;;5026839;28;20700;-46
2022/03/21 03:46:46;;;;;;;83.07;33.47;;;7.10;58.00;;;;;;5026609;28;20206;-47
2022/03/21 03:49:13;;;;;;;80.87;32.83;;;7.10;58.00;;;;;;5021500;28;20194;-49
2022/03/21 03:51:42;;;;;;;101.97;36.80;;;7.20;58.10;;;;;;5007909;28;20210;-51
2022/03/21 03:54:09;;;;;;;100.60;39.50;;;7.20;58.80;;;;;;5007000;28;20201;-47
2022/03/21 03:56:36;;;;;;;90.30;34.00;;;7.10;58.20;;;;;;5010462;28;20203;-47
2022/03/21 03:59:03;;;;;;;102.17;38.93;;;7.20;58.20;;;;;;5023670;28;20214;-48
2022/03/21 04:01:30;;;;;;;100.33;37.63;;;7.10;58.20;;;;;;4999211;28;20657;-51
2022/03/21 04:03:59;;;;;;;87.60;34.43;;;7.10;58.30;;;;;;5023338;28;20661;-48
2022/03/21 04:06:27;;;;;;;86.47;33.07;;;7.10;58.30;;;;;;5028889;28;20190;-49
2022/03/21 04:08:55;;;;;;;88.30;32.03;;;7.00;58.30;;;;;;5019629;28;20190;-47
2022/03/21 04:11:23;;;;;;;89.03;32.07;;;7.00;58.40;;;;;;5027669;28;20190;-48
2022/03/21 04:13:50;;;;;;;98.47;36.67;;;7.00;58.50;;;;;;5026333;28;20228;-48
2022/03/21 04:16:17;;;;;;;97.20;34.70;;;7.00;58.50;;;;;;5023342;28;20259;-49
2022/03/21 04:18:44;;;;;;;91.13;33.10;;;7.00;58.50;;;;;;5008557;28;20672;-49
2022/03/21 04:21:11;;;;;;;92.30;34.07;;;7.00;58.40;;;;;;5028881;28;20194;-50
2022/03/21 04:23:38;;;;;;;102.90;35.07;;;6.90;58.40;;;;;;5010192;28;20207;-48
2022/03/21 04:26:07;;;;;;;98.97;33.80;;;6.80;58.50;;;;;;5027444;28;20202;-53
2022/03/21 04:28:34;;;;;;;89.20;32.57;;;6.80;58.70;;;;;;5022799;28;20666;-50
2022/03/21 04:31:01;;;;;;;112.60;37.77;;;6.80;58.70;;;;;;5023756;28;20678;-46
2022/03/21 04:33:29;;;;;;;113.73;36.73;;;6.80;58.70;;;;;;5020014;28;20282;-50
2022/03/21 04:35:56;;;;;;;107.87;35.90;;;6.80;58.80;;;;;;4998352;28;20205;-46
2022/03/21 04:38:23;;;;;;;102.23;34.57;;;6.80;58.80;;;;;;5010895;28;20302;-47
2022/03/21 04:40:51;;;;;;;114.60;38.00;;;6.80;58.80;;;;;;5022373;28;20221;-46
2022/03/21 04:43:21;;;;;;;117.43;36.80;;;6.70;58.80;;;;;;5027048;28;20230;-51
2022/03/21 04:45:49;;;;;;;124.33;39.67;;;6.70;58.80;;;;;;5015287;28;20716;-46
2022/03/21 04:48:16;;;;;;;104.23;33.67;;;6.70;58.70;;;;;;5027815;28;20599;-45
2022/03/21 04:50:44;;;;;;;113.67;35.83;;;6.70;58.70;;;;;;5029028;28;20200;-47
2022/03/21 04:53:12;;;;;;;134.90;40.83;;;6.70;58.80;;;;;;5025376;28;20190;-45
2022/03/21 04:55:39;;;;;;;106.00;34.03;;;6.70;58.80;;;;;;5028012;28;20205;-44
2022/03/21 04:58:06;;;;;;;110.53;35.80;;;6.60;58.80;;;;;;5023938;28;20212;-50
2022/03/21 05:00:35;;;;;;;105.63;35.67;;;6.70;58.80;;;;;;5018679;28;20246;-52
2022/03/21 05:03:07;;;;;;;109.33;35.93;;;6.70;58.80;;;;;;5025989;28;20614;-50
2022/03/21 05:05:34;;;;;;;106.20;34.87;;;6.70;58.80;;;;;;5021437;28;20237;-47
2022/03/21 05:08:02;;;;;;;107.67;37.80;;;6.70;58.70;;;;;;5016897;28;20205;-48
2022/03/21 05:10:30;;;;;;;88.77;32.50;;;6.70;58.70;;;;;;5026490;28;20199;-46
2022/03/21 05:12:58;;;;;;;94.43;32.30;;;6.70;58.70;;;;;;5028198;28;20193;-44
2022/03/21 05:15:25;;;;;;;89.37;33.37;;;6.70;58.70;;;;;;5024381;28;20217;-46
2022/03/21 05:17:54;;;;;;;94.73;33.67;;;6.60;58.50;;;;;;5019152;28;20605;-47
2022/03/21 05:20:21;;;;;;;77.87;30.10;;;6.60;58.60;;;;;;5022304;28;20624;-47
2022/03/21 05:30:57;;;;;;;73.60;28.20;;;6.60;58.60;;;;;;5009700;28;20538;-50
2022/03/21 05:31:09;;;;;;;61.23;24.00;;;6.50;58.60;;;;;;5024661;28;20184;-47
2022/03/21 05:36:24;;;;;;;57.03;23.43;;;6.60;58.70;;;;;;5028710;28;20580;-45
2022/03/21 05:38:51;;;;;;;66.40;26.87;;;6.60;58.60;;;;;;5013316;28;20206;-46
2022/03/21 05:41:18;;;;;;;59.00;25.53;;;6.60;58.50;;;;;;5027323;28;20275;-45
2022/03/21 05:43:45;;;;;;;54.53;23.97;;;6.70;58.70;;;;;;5008982;28;20204;-50
2022/03/21 05:46:13;;;;;;;63.40;26.03;;;6.70;58.70;;;;;;5031075;28;20205;-46
2022/03/21 05:48:59;;;;;;;52.63;23.07;;;6.80;58.60;;;;;;5028221;28;20199;-47
2022/03/21 05:51:29;;;;;;;59.27;24.97;;;6.80;58.50;;;;;;5026366;28;20229;-44
2022/03/21 05:53:56;;;;;;;50.50;22.07;;;6.80;58.60;;;;;;5013584;28;20674;-44
2022/03/21 05:56:25;;;;;;;48.43;21.57;;;6.90;58.50;;;;;;5028719;28;20206;-48
2022/03/21 05:58:53;;;;;;;51.50;22.03;;;6.90;58.50;;;;;;5027465;28;20191;-46
2022/03/21 06:01:22;;;;;;;52.97;21.10;;;7.00;58.60;;;;;;5025152;28;20221;-45
2022/03/21 06:03:52;;;;;;;43.00;19.73;;;7.00;58.50;;;;;;5024234;28;20288;-52
2022/03/21 06:06:19;;;;;;;65.17;25.20;;;7.00;58.40;;;;;;5024642;28;20194;-49
2022/03/21 06:08:47;;;;;;;67.73;28.50;;;7.00;58.50;;;;;;5026065;28;20199;-47
2022/03/21 06:11:14;;;;;;;66.03;26.47;;;7.20;58.60;;;;;;5026382;28;20201;-48
2022/03/21 06:13:43;;;;;;;83.50;34.37;;;7.20;58.50;;;;;;5031178;28;20191;-48
2022/03/21 06:16:11;;;;;;;117.07;48.80;;;7.30;58.40;;;;;;5023208;28;20201;-49
2022/03/21 06:18:39;;;;;;;120.50;49.70;;;7.50;58.60;;;;;;5029336;28;20208;-47
2022/03/21 06:21:09;;;;;;;115.83;46.37;;;7.40;58.50;;;;;;5029880;28;20219;-46
2022/03/21 06:23:37;;;;;;;103.67;42.50;;;7.40;58.50;;;;;;5027879;28;20197;-49
2022/03/21 06:26:05;;;;;;;99.43;44.07;;;7.40;58.40;;;;;;5028293;28;20198;-50
2022/03/21 06:28:33;;;;;;;88.07;40.13;;;7.50;58.40;;;;;;5028202;28;20235;-44
2022/03/21 06:31:00;;;;;;;80.97;37.07;;;7.60;58.40;;;;;;5030217;28;20195;-45
2022/03/21 06:33:29;;;;;;;80.07;36.70;;;7.70;58.30;;;;;;5022358;28;20262;-48
2022/03/21 06:35:57;;;;;;;66.50;33.70;;;7.70;58.30;;;;;;5028442;28;20281;-45
2022/03/21 06:38:26;;;;;;;86.97;37.63;;;7.80;58.30;;;;;;5029713;28;20202;-48
2022/03/21 06:40:55;;;;;;;70.03;32.83;;;7.80;58.40;;;;;;5021876;28;20218;-45
2022/03/21 06:43:23;;;;;;;63.87;30.87;;;7.90;58.40;;;;;;5025234;28;20192;-50
2022/03/21 06:45:51;;;;;;;60.30;31.17;;;7.90;58.50;;;;;;5028894;28;20276;-46
2022/03/21 06:48:18;;;;;;;53.73;26.67;;;8.00;58.60;;;;;;5028782;28;20194;-50
2022/03/21 06:50:46;;;;;;;63.73;31.20;;;8.00;58.60;;;;;;5026352;28;20264;-50
2022/03/21 06:53:14;;;;;;;79.77;35.33;;;8.00;58.70;;;;;;5024886;28;20608;-49
2022/03/21 06:55:43;;;;;;;82.43;40.07;;;8.10;58.90;;;;;;5023740;28;20260;-48
2022/03/21 06:58:11;;;;;;;88.57;41.07;;;8.10;58.90;;;;;;5029622;28;20690;-47
2022/03/21 07:00:40;;;;;;;84.43;41.13;;;8.10;59.00;;;;;;5023400;28;20225;-47
2022/03/21 07:03:08;;;;;;;88.07;41.63;;;8.20;59.10;;;;;;5028837;28;20198;-49
2022/03/21 07:05:35;;;;;;;86.47;42.30;;;8.20;59.20;;;;;;5029734;28;20238;-47
2022/03/21 07:08:03;;;;;;;74.80;36.93;;;8.20;59.10;;;;;;5029413;28;20581;-44
2022/03/21 07:10:32;;;;;;;64.13;31.47;;;8.20;59.00;;;;;;5023125;28;20222;-48
2022/03/21 07:13:01;;;;;;;56.47;27.67;;;8.20;58.90;;;;;;5027924;28;20194;-48
2022/03/21 07:15:28;;;;;;;48.70;24.00;;;8.20;58.80;;;;;;5027410;28;20202;-46
2022/03/21 07:17:56;;;;;;;52.60;26.23;;;8.20;58.70;;;;;;5023005;28;20198;-47
2022/03/21 07:20:25;;;;;;;48.60;24.83;;;8.30;58.70;;;;;;5024986;28;20585;-45
2022/03/21 07:22:53;;;;;;;50.70;22.77;;;8.40;58.50;;;;;;5024105;28;20209;-46
2022/03/21 07:25:20;;;;;;;52.33;26.00;;;8.40;58.30;;;;;;5025974;28;20206;-50
2022/03/21 07:27:48;;;;;;;57.70;27.67;;;8.50;58.30;;;;;;5028368;28;20606;-45
2022/03/21 07:30:17;;;;;;;56.20;27.80;;;8.60;58.00;;;;;;5026734;28;20201;-46
2022/03/21 07:32:45;;;;;;;65.53;32.43;;;8.70;57.70;;;;;;5024591;28;20209;-46
2022/03/21 07:35:13;;;;;;;76.73;35.33;;;8.80;57.60;;;;;;5021808;28;20206;-45
2022/03/21 07:37:41;;;;;;;74.70;34.70;;;9.00;57.50;;;;;;5028087;28;20716;-44
2022/03/21 07:40:11;;;;;;;61.07;29.57;;;9.10;57.20;;;;;;5028587;28;20211;-45
2022/03/21 07:42:38;;;;;;;52.50;26.40;;;9.20;57.00;;;;;;5022354;28;20297;-44
2022/03/21 07:47:52;;;;;;;56.17;28.17;;;9.40;56.60;;;;;;5011522;28;20200;-46
2022/03/21 07:50:19;;;;;;;39.13;21.40;;;9.50;56.40;;;;;;5022215;28;20270;-47
2022/03/21 07:52:47;;;;;;;57.73;28.97;;;9.70;56.20;;;;;;5009949;28;20214;-44
2022/03/21 07:55:14;;;;;;;62.40;30.03;;;9.80;55.30;;;;;;5015325;28;20528;-45
2022/03/21 07:57:41;;;;;;;57.07;27.73;;;9.90;54.10;;;;;;5022485;28;20226;-46
2022/03/21 08:00:10;;;;;;;51.27;24.37;;;10.10;53.10;;;;;;5027161;28;20609;-48
2022/03/21 08:02:41;;;;;;;49.77;25.43;;;10.10;52.80;;;;;;5026779;28;20196;-43
2022/03/21 08:05:11;;;;;;;44.10;23.63;;;10.40;52.60;;;;;;5008611;28;20280;-44
2022/03/21 08:07:38;;;;;;;44.73;22.50;;;11.10;52.50;;;;;;5026396;28;20286;-45
2022/03/21 08:10:06;;;;;;;49.43;24.80;;;12.60;51.40;;;;;;5024646;28;20226;-45
2022/03/21 08:12:33;;;;;;;46.60;23.83;;;14.00;48.90;;;;;;5020895;28;20189;-45
2022/03/21 08:15:00;;;;;;;52.00;26.33;;;15.20;47.10;;;;;;5026251;28;20200;-44
2022/03/21 08:17:27;;;;;;;42.20;21.57;;;16.20;45.30;;;;;;5020448;28;20210;-45
2022/03/21 08:19:55;;;;;;;34.93;19.63;;;17.10;44.10;;;;;;5026005;28;20586;-46
2022/03/21 08:22:23;;;;;;;31.87;16.57;;;17.90;42.50;;;;;;5022762;28;20200;-46
2022/03/21 08:24:52;;;;;;;31.33;17.13;;;18.60;41.00;;;;;;5027454;28;20195;-46
2022/03/21 08:27:19;;;;;;;38.57;19.50;;;19.10;38.90;;;;;;5017123;28;21021;-48
2022/03/21 08:29:46;;;;;;;35.63;18.30;;;19.70;37.40;;;;;;5010351;28;20213;-45
2022/03/21 08:32:13;;;;;;;35.07;19.60;;;20.20;36.80;;;;;;5028540;28;20697;-47
2022/03/21 08:34:40;;;;;;;41.03;22.03;;;20.70;35.40;;;;;;5026717;28;20212;-45
2022/03/21 08:37:08;;;;;;;36.40;20.50;;;21.10;33.60;;;;;;5010142;28;20195;-47
2022/03/21 08:39:36;;;;;;;39.87;20.80;;;21.40;32.70;;;;;;5025425;28;20199;-48
2022/03/21 08:42:04;;;;;;;32.50;17.30;;;22.00;32.20;;;;;;4998402;28;20724;-45
2022/03/21 08:44:31;;;;;;;32.90;17.47;;;22.40;31.90;;;;;;5027695;28;20305;-48
2022/03/21 08:46:58;;;;;;;30.23;16.40;;;22.80;31.70;;;;;;5025298;28;20202;-45
2022/03/21 08:49:26;;;;;;;29.42;15.77;;;23.30;31.60;;;;;;5023840;28;20199;-49
2022/03/21 08:51:54;;;;;;;29.23;16.37;;;23.70;31.10;;;;;;5023203;28;20616;-47
2022/03/21 08:54:22;;;;;;;26.42;16.30;;;23.90;30.20;;;;;;5025795;28;20312;-45
2022/03/21 08:56:50;;;;;;;27.15;16.13;;;24.00;30.00;;;;;;5027683;28;20637;-49
2022/03/21 08:59:18;;;;;;;29.95;18.55;;;24.10;29.80;;;;;;5021060;28;20559;-48
2022/03/21 09:01:46;;;;;;;30.85;18.67;;;24.00;29.00;;;;;;5022800;28;20567;-49
2022/03/21 09:04:13;;;;;;;25.65;15.80;;;23.80;28.80;;;;;;5025899;28;20329;-48
2022/03/21 09:06:41;;;;;;;34.95;18.45;;;23.90;29.10;;;;;;5020699;28;20245;-50
2022/03/21 09:09:08;;;;;;;24.33;14.82;;;24.30;28.30;;;;;;5023955;28;20206;-48
2022/03/21 09:11:37;;;;;;;23.65;15.00;;;24.30;28.60;;;;;;5030497;28;20203;-49
2022/03/21 09:14:07;;;;;;;25.30;14.23;;;24.40;28.40;;;;;;5025910;28;20222;-49
2022/03/21 09:16:34;;;;;;;24.17;15.50;;;24.30;28.60;;;;;;5027906;28;20658;-48
2022/03/21 09:19:01;;;;;;;23.75;14.98;;;24.10;27.90;;;;;;5031253;28;20195;-47
2022/03/21 09:21:28;;;;;;;27.40;16.48;;;24.10;27.70;;;;;;5012701;28;20222;-48
2022/03/21 09:23:55;;;;;;;20.75;14.18;;;24.20;27.40;;;;;;5028326;28;20663;-46
2022/03/21 09:26:23;;;;;;;24.23;15.38;;;24.70;27.40;;;;;;5027639;28;20203;-52
2022/03/21 09:28:59;;;;;;;19.35;12.70;;;25.10;26.60;;;;;;5028149;28;20199;-49
2022/03/21 09:31:28;;;;;;;26.25;15.38;;;25.40;26.70;;;;;;5027464;28;20193;-49
2022/03/21 09:33:55;;;;;;;25.05;15.65;;;26.00;25.70;;;;;;5024461;28;20253;-46
2022/03/21 09:36:22;;;;;;;21.15;13.77;;;26.40;25.50;;;;;;5013543;28;20210;-45
2022/03/21 09:38:50;;;;;;;20.95;13.35;;;26.90;25.70;;;;;;5031268;28;20197;-49
2022/03/21 09:41:22;;;;;;;23.50;14.52;;;27.40;25.10;;;;;;5028010;28;20237;-48
2022/03/21 09:43:51;;;;;;;21.92;14.20;;;27.70;24.30;;;;;;5028143;28;20198;-47
2022/03/21 09:46:20;;;;;;;25.20;14.55;;;28.10;24.20;;;;;;5028434;28;20195;-50
2022/03/21 09:48:49;;;;;;;24.00;15.02;;;28.30;23.70;;;;;;5027683;28;20660;-50
2022/03/21 09:51:21;;;;;;;19.83;12.88;;;28.50;23.50;;;;;;5029179;28;20631;-47
2022/03/21 09:53:49;;;;;;;20.00;13.07;;;28.70;22.90;;;;;;5013535;28;20212;-45
2022/03/21 09:56:19;;;;;;;19.38;12.82;;;28.70;22.80;;;;;;5030227;28;20258;-48
2022/03/21 09:58:47;;;;;;;21.27;13.85;;;28.90;22.60;;;;;;5030287;28;20325;-50
2022/03/21 10:01:16;;;;;;;19.40;13.10;;;29.00;22.10;;;;;;5024697;28;20232;-47
2022/03/21 10:03:43;;;;;;;17.38;11.30;;;29.00;21.70;;;;;;5024124;28;20229;-47
2022/03/21 10:06:30;;;;;;;18.83;11.30;;;29.00;22.40;;;;;;5026552;28;20195;-46
2022/03/21 10:09:08;;;;;;;16.98;10.52;;;29.30;22.50;;;;;;5029459;28;20588;-49
2022/03/21 10:11:36;;;;;;;17.52;11.02;;;29.70;21.70;;;;;;5030424;28;20663;-48
2022/03/21 10:14:21;;;;;;;14.70;10.65;;;29.80;21.40;;;;;;5030700;28;20216;-48
2022/03/21 10:16:53;;;;;;;15.38;10.27;;;29.80;21.00;;;;;;5020244;28;20210;-50
2022/03/21 10:19:21;;;;;;;15.77;11.38;;;29.90;21.10;;;;;;5024185;28;20199;-48
2022/03/21 10:22:04;;;;;;;17.92;12.18;;;30.10;20.70;;;;;;5023489;28;20237;-45
2022/03/21 10:24:37;;;;;;;17.05;12.00;;;30.20;20.60;;;;;;5027758;28;20203;-47
2022/03/21 10:27:04;;;;;;;12.63;9.68;;;30.30;20.10;;;;;;5029355;28;20195;-49
2022/03/21 10:29:32;;;;;;;13.32;9.32;;;30.30;20.10;;;;;;5030325;28;20559;-51
2022/03/21 10:32:00;;;;;;;11.95;9.55;;;30.50;20.20;;;;;;5028867;28;20198;-47
2022/03/21 10:34:30;;;;;;;19.10;11.63;;;30.90;20.10;;;;;;5027134;28;20679;-49
2022/03/21 10:37:06;;;;;;;14.45;11.68;;;31.10;19.70;;;;;;5028299;28;20221;-48
2022/03/21 10:39:35;;;;;;;12.70;10.25;;;31.00;19.40;;;;;;5029426;28;20193;-47
2022/03/21 10:42:03;;;;;;;14.00;9.82;;;31.00;19.50;;;;;;5023675;28;20310;-49
2022/03/21 10:44:32;;;;;;;12.45;9.32;;;31.20;19.70;;;;;;5027922;28;20209;-47
2022/03/21 10:47:03;;;;;;;17.27;11.07;;;31.40;19.50;;;;;;5023834;28;20203;-45
2022/03/21 10:49:32;;;;;;;15.88;11.02;;;31.70;19.10;;;;;;5028949;28;20674;-45
2022/03/21 10:52:00;;;;;;;21.98;11.50;;;31.80;18.90;;;;;;5028678;28;20221;-48
2022/03/21 10:54:43;;;;;;;15.15;11.35;;;31.70;18.20;;;;;;5027464;28;20190;-49
2022/03/21 10:57:32;;;;;;;16.30;10.93;;;31.30;18.20;;;;;;5029896;28;20658;-46
2022/03/21 11:00:17;;;;;;;13.13;10.02;;;31.10;18.30;;;;;;5026297;28;20470;-50
2022/03/21 11:02:51;;;;;;;12.57;9.27;;;31.00;18.00;;;;;;5028700;28;20301;-47
2022/03/21 11:05:21;;;;;;;11.40;8.77;;;31.00;17.90;;;;;;5025016;28;20233;-48
2022/03/21 11:07:49;;;;;;;8.77;7.85;;;31.20;18.10;;;;;;5025395;28;20229;-47
2022/03/21 11:10:18;;;;;;;10.15;8.13;;;31.40;18.20;;;;;;5028257;28;20280;-45
2022/03/21 11:12:46;;;;;;;9.02;7.65;;;31.70;17.80;;;;;;5029539;28;20605;-47
2022/03/21 11:15:13;;;;;;;10.05;7.88;;;32.00;18.00;;;;;;5008795;28;20297;-49
2022/03/21 11:17:43;;;;;;;11.57;8.68;;;32.20;17.90;;;;;;5027401;28;20195;-48
2022/03/21 11:20:12;;;;;;;14.50;9.88;;;32.50;17.40;;;;;;5023033;28;20205;-48
2022/03/21 11:22:40;;;;;;;9.10;7.88;;;32.40;16.60;;;;;;5025268;28;20284;-48
2022/03/21 11:25:10;;;;;;;15.77;11.48;;;32.30;17.20;;;;;;5027826;28;20245;-47
2022/03/21 11:28:02;;;;;;;10.88;9.10;;;32.40;16.70;;;;;;5029957;28;20874;-46
2022/03/21 11:30:42;;;;;;;9.77;8.13;;;32.50;17.20;;;;;;5022837;28;20199;-49
2022/03/21 11:33:20;;;;;;;11.25;9.38;;;32.70;17.30;;;;;;5019841;28;20206;-46
2022/03/21 11:35:52;;;;;;;14.20;9.25;;;32.80;17.00;;;;;;5020394;28;20209;-52
2022/03/21 11:38:24;;;;;;;10.45;8.50;;;32.80;17.00;;;;;;5005006;28;20208;-52
2022/03/21 11:40:52;;;;;;;8.98;8.02;;;33.00;16.90;;;;;;4999428;28;20671;-49
2022/03/21 11:43:32;;;;;;;11.43;9.02;;;33.30;17.10;;;;;;5026491;28;20186;-45
2022/03/21 11:46:29;;;;;;;8.60;7.63;;;33.40;16.40;;;;;;5028751;28;20209;-47
2022/03/21 11:48:57;;;;;;;9.13;7.43;;;33.40;16.70;;;;;;5028409;28;20218;-50
2022/03/21 11:51:36;;;;;;;9.57;7.45;;;33.80;16.60;;;;;;5027311;28;20762;-51
2022/03/21 11:54:06;;;;;;;8.70;7.03;;;33.80;16.60;;;;;;5022925;28;20201;-49
2022/03/21 11:57:29;;;;;;;11.10;8.10;;;33.80;16.30;;;;;;5021861;28;20205;-48
2022/03/21 12:00:00;;;;;;;10.13;9.10;;;33.70;16.10;;;;;;5022318;28;20681;-52
2022/03/21 12:02:56;;;;;;;9.98;7.30;;;33.70;16.20;;;;;;5020338;28;20654;-52
2022/03/21 12:09:11;;;;;;;7.25;6.32;;;33.70;16.10;;;;;;5027849;28;20266;-51
2022/03/21 12:12:11;;;;;;;8.27;6.50;;;33.90;16.20;;;;;;5024350;28;20232;-45
2022/03/21 12:14:43;;;;;;;9.65;8.07;;;33.90;16.20;;;;;;5026969;28;20201;-50
2022/03/21 12:17:39;;;;;;;9.75;7.47;;;34.10;15.40;;;;;;5007823;28;20297;-45
2022/03/21 12:20:18;;;;;;;10.35;8.43;;;33.80;15.20;;;;;;5025305;28;20248;-44
2022/03/21 12:22:50;;;;;;;8.27;7.30;;;33.40;15.40;;;;;;5022009;28;20696;-45
2022/03/21 12:25:20;;;;;;;8.32;7.38;;;33.30;15.70;;;;;;5022822;28;20207;-46
2022/03/21 12:27:50;;;;;;;8.80;7.80;;;33.40;15.70;;;;;;5025429;28;20202;-49
2022/03/21 12:30:38;;;;;;;10.90;8.40;;;33.30;15.50;;;;;;5022593;28;20682;-47
2022/03/21 12:33:27;;;;;;;10.38;8.13;;;33.20;15.70;;;;;;5021315;28;20179;-46
2022/03/21 12:36:07;;;;;;;12.77;9.85;;;33.20;15.60;;;;;;5028693;28;20198;-48
2022/03/21 12:38:39;;;;;;;9.60;7.82;;;33.10;15.50;;;;;;5027810;28;20186;-45
2022/03/21 12:41:13;;;;;;;9.23;8.10;;;33.20;15.70;;;;;;5026704;28;20212;-49
2022/03/21 12:43:55;;;;;;;11.35;8.95;;;33.40;15.60;;;;;;5017891;28;20332;-46
2022/03/21 12:46:24;;;;;;;11.30;8.68;;;33.30;15.60;;;;;;5029533;28;20662;-45
2022/03/21 12:48:58;;;;;;;10.90;8.73;;;33.30;15.80;;;;;;5022997;28;20414;-51
2022/03/21 12:51:31;;;;;;;15.20;9.93;;;33.20;15.80;;;;;;5029134;28;20204;-50
2022/03/21 12:54:02;;;;;;;12.30;9.02;;;33.10;15.90;;;;;;5023698;28;20207;-47
2022/03/21 12:56:31;;;;;;;11.00;8.68;;;33.00;15.90;;;;;;5027453;28;20278;-49
2022/03/21 12:59:04;;;;;;;14.25;9.73;;;33.20;16.10;;;;;;5021454;28;20679;-48
2022/03/21 13:01:32;;;;;;;10.18;8.93;;;33.20;15.90;;;;;;5027348;28;20211;-52
2022/03/21 13:12:28;;;;;;;8.93;7.70;;;34.30;15.90;;;;;;5005903;28;20693;-48